sensor_id;sensor_type;location;lat;lon;timestamp;pressure;altitude;pressure_sealevel;temperature;humidity
36600;BME280;35385;55.668;37.508;2023-09-07T00:00:40;99754.03;;;11.50;100.00
36600;BME280;35385;55.668;37.508;2023-09-07T00:01:41;99758.84;;;11.56;100.00
36600;BME280;35385;55.668;37.508;2023-09-07T00:02:42;99748.72;;;11.60;100.00
36600;BME280;35385;55.668;37.508;2023-09-07T00:03:42;99756.81;;;11.69;100.00
36600;BME280;35385;55.668;37.508;2023-09-07T00:04:43;99756.41;;;11.74;100.00
36600;BME280;35385;55.668;37.508;2023-09-07T00:05:44;99761.69;;;11.76;100.00
36600;BME280;35385;55.668;37.508;2023-09-07T00:06:45;99757.28;;;11.75;100.00
36600;BME280;35385;55.668;37.508;2023-09-07T00:07:46;99750.34;;;11.72;100.00
36600;BME280;35385;55.668;37.508;2023-09-07T00:08:46;99748.94;;;11.68;100.00
36600;BME280;35385;55.668;37.508;2023-09-07T00:09:47;99764.34;;;11.76;100.00
36600;BME280;35385;55.668;37.508;2023-09-07T00:10:47;99735.41;;;11.49;100.00
36600;BME280;35385;55.668;37.508;2023-09-07T00:11:48;99757.13;;;11.55;100.00
36600;BME280;35385;55.668;37.508;2023-09-07T00:12:49;99771.09;;;11.59;100.00
36600;BME280;35385;55.668;37.508;2023-09-07T00:13:50;99762.75;;;11.52;100.00
36600;BME280;35385;55.668;37.508;2023-09-07T00:14:52;99776.03;;;11.54;100.00
36600;BME280;35385;55.668;37.508;2023-09-07T00:15:52;99767.72;;;11.57;100.00
36600;BME280;35385;55.668;37.508;2023-09-07T00:16:53;99760.47;;;11.48;100.00
36600;BME280;35385;55.668;37.508;2023-09-07T00:17:54;99765.31;;;11.54;100.00
36600;BME280;35385;55.668;37.508;2023-09-07T00:18:54;99757.41;;;11.52;100.00
36600;BME280;35385;55.668;37.508;2023-09-07T00:19:55;99726.75;;;11.36;100.00
36600;BME280;35385;55.668;37.508;2023-09-07T00:20:58;99768.25;;;11.51;100.00
36600;BME280;35385;55.668;37.508;2023-09-07T00:22:00;99740.97;;;11.36;100.00
36600;BME280;35385;55.668;37.508;2023-09-07T00:23:01;99763.28;;;11.46;100.00
36600;BME280;35385;55.668;37.508;2023-09-07T00:24:02;99766.44;;;11.40;100.00
36600;BME280;35385;55.668;37.508;2023-09-07T00:25:05;99748.53;;;11.31;100.00
36600;BME280;35385;55.668;37.508;2023-09-07T00:26:07;99772.66;;;11.41;100.00
36600;BME280;35385;55.668;37.508;2023-09-07T00:27:07;99739.88;;;11.07;100.00
36600;BME280;35385;55.668;37.508;2023-09-07T00:28:08;99772.75;;;11.18;100.00
36600;BME280;35385;55.668;37.508;2023-09-07T00:29:09;99761.88;;;11.10;100.00
36600;BME280;35385;55.668;37.508;2023-09-07T00:30:10;99782.13;;;11.24;100.00
36600;BME280;35385;55.668;37.508;2023-09-07T00:31:10;99730.97;;;10.85;100.00
36600;BME280;35385;55.668;37.508;2023-09-07T00:32:11;99778.25;;;11.17;100.00
36600;BME280;35385;55.668;37.508;2023-09-07T00:33:11;99737.16;;;10.86;100.00
36600;BME280;35385;55.668;37.508;2023-09-07T00:34:12;99743.59;;;10.83;100.00
36600;BME280;35385;55.668;37.508;2023-09-07T00:35:13;99743.59;;;10.83;100.00
36600;BME280;35385;55.668;37.508;2023-09-07T00:36:13;99737.56;;;10.81;100.00
36600;BME280;35385;55.668;37.508;2023-09-07T00:37:14;99782.41;;;11.10;100.00
36600;BME280;35385;55.668;37.508;2023-09-07T00:38:14;99796.47;;;11.12;100.00
36600;BME280;35385;55.668;37.508;2023-09-07T00:39:15;99784.69;;;11.14;100.00
36600;BME280;35385;55.668;37.508;2023-09-07T00:40:15;99777.06;;;11.10;100.00
36600;BME280;35385;55.668;37.508;2023-09-07T00:41:16;99780.59;;;10.99;100.00
36600;BME280;35385;55.668;37.508;2023-09-07T00:42:17;99791.66;;;11.06;100.00
36600;BME280;35385;55.668;37.508;2023-09-07T00:43:17;99789.09;;;11.04;100.00
36600;BME280;35385;55.668;37.508;2023-09-07T00:44:18;99749.22;;;10.80;100.00
36600;BME280;35385;55.668;37.508;2023-09-07T00:45:18;99796.06;;;10.95;100.00
36600;BME280;35385;55.668;37.508;2023-09-07T00:46:19;99757.75;;;10.63;100.00
36600;BME280;35385;55.668;37.508;2023-09-07T00:47:21;99768.66;;;10.71;100.00
36600;BME280;35385;55.668;37.508;2023-09-07T00:48:23;99786.09;;;10.86;100.00
36600;BME280;35385;55.668;37.508;2023-09-07T00:49:24;99742.06;;;10.70;100.00
36600;BME280;35385;55.668;37.508;2023-09-07T00:50:25;99796.50;;;11.01;100.00
36600;BME280;35385;55.668;37.508;2023-09-07T00:51:26;99781.25;;;10.91;100.00
36600;BME280;35385;55.668;37.508;2023-09-07T00:52:27;99793.84;;;11.01;100.00
36600;BME280;35385;55.668;37.508;2023-09-07T00:53:27;99784.53;;;10.95;100.00
36600;BME280;35385;55.668;37.508;2023-09-07T00:54:28;99792.38;;;10.96;100.00
36600;BME280;35385;55.668;37.508;2023-09-07T00:55:30;99795.53;;;11.02;100.00
36600;BME280;35385;55.668;37.508;2023-09-07T00:56:34;99803.56;;;11.02;100.00
36600;BME280;35385;55.668;37.508;2023-09-07T00:57:36;99805.06;;;10.94;100.00
36600;BME280;35385;55.668;37.508;2023-09-07T00:58:37;99808.41;;;10.96;100.00
36600;BME280;35385;55.668;37.508;2023-09-07T00:59:38;99754.31;;;10.72;100.00
36600;BME280;35385;55.668;37.508;2023-09-07T01:00:39;99792.53;;;10.95;100.00
36600;BME280;35385;55.668;37.508;2023-09-07T01:01:40;99808.19;;;10.99;100.00
36600;BME280;35385;55.668;37.508;2023-09-07T01:02:42;99799.59;;;10.96;100.00
36600;BME280;35385;55.668;37.508;2023-09-07T01:03:45;99747.41;;;10.70;100.00
36600;BME280;35385;55.668;37.508;2023-09-07T01:04:46;99792.38;;;10.96;100.00
36600;BME280;35385;55.668;37.508;2023-09-07T01:05:53;99798.59;;;10.97;100.00
36600;BME280;35385;55.668;37.508;2023-09-07T01:08:11;99802.75;;;10.90;100.00
36600;BME280;35385;55.668;37.508;2023-09-07T01:09:19;99810.66;;;10.91;100.00
36600;BME280;35385;55.668;37.508;2023-09-07T01:10:20;99814.53;;;10.87;100.00
36600;BME280;35385;55.668;37.508;2023-09-07T01:11:23;99798.84;;;10.83;100.00
36600;BME280;35385;55.668;37.508;2023-09-07T01:12:23;99801.41;;;10.84;100.00
36600;BME280;35385;55.668;37.508;2023-09-07T01:13:24;99770.13;;;10.64;100.00
36600;BME280;35385;55.668;37.508;2023-09-07T01:14:25;99776.91;;;10.68;100.00
36600;BME280;35385;55.668;37.508;2023-09-07T01:15:26;99814.91;;;10.83;100.00
36600;BME280;35385;55.668;37.508;2023-09-07T01:16:26;99801.44;;;10.73;100.00
36600;BME280;35385;55.668;37.508;2023-09-07T01:17:28;99814.06;;;10.71;100.00
36600;BME280;35385;55.668;37.508;2023-09-07T01:18:29;99802.94;;;10.66;100.00
36600;BME280;35385;55.668;37.508;2023-09-07T01:19:30;99766.28;;;10.46;100.00
36600;BME280;35385;55.668;37.508;2023-09-07T01:20:32;99815.53;;;10.75;100.00
36600;BME280;35385;55.668;37.508;2023-09-07T01:21:39;99824.03;;;10.80;100.00
36600;BME280;35385;55.668;37.508;2023-09-07T01:22:40;99787.41;;;10.49;100.00
36600;BME280;35385;55.668;37.508;2023-09-07T01:23:42;99822.09;;;10.71;100.00
36600;BME280;35385;55.668;37.508;2023-09-07T01:24:45;99812.38;;;10.70;100.00
36600;BME280;35385;55.668;37.508;2023-09-07T01:25:47;99825.38;;;10.63;100.00
36600;BME280;35385;55.668;37.508;2023-09-07T01:26:48;99823.69;;;10.51;100.00
36600;BME280;35385;55.668;37.508;2023-09-07T01:27:50;99820.91;;;10.53;100.00
36600;BME280;35385;55.668;37.508;2023-09-07T01:28:51;99782.44;;;10.33;100.00
36600;BME280;35385;55.668;37.508;2023-09-07T01:29:51;99776.97;;;10.23;100.00
36600;BME280;35385;55.668;37.508;2023-09-07T01:30:52;99817.38;;;10.41;100.00
36600;BME280;35385;55.668;37.508;2023-09-07T01:31:53;99821.00;;;10.40;100.00
36600;BME280;35385;55.668;37.508;2023-09-07T01:32:53;99839.97;;;10.48;100.00
36600;BME280;35385;55.668;37.508;2023-09-07T01:33:54;99827.94;;;10.43;100.00
36600;BME280;35385;55.668;37.508;2023-09-07T01:34:57;99829.03;;;10.51;100.00
36600;BME280;35385;55.668;37.508;2023-09-07T01:35:58;99813.38;;;10.47;100.00
36600;BME280;35385;55.668;37.508;2023-09-07T01:36:58;99831.59;;;10.53;100.00
36600;BME280;35385;55.668;37.508;2023-09-07T01:37:59;99830.75;;;10.52;100.00
36600;BME280;35385;55.668;37.508;2023-09-07T01:39:00;99832.69;;;10.50;100.00
36600;BME280;35385;55.668;37.508;2023-09-07T01:40:01;99838.88;;;10.51;100.00
36600;BME280;35385;55.668;37.508;2023-09-07T01:41:01;99832.81;;;10.49;100.00
36600;BME280;35385;55.668;37.508;2023-09-07T01:42:02;99791.53;;;10.19;100.00
36600;BME280;35385;55.668;37.508;2023-09-07T01:43:03;99835.72;;;10.46;100.00
36600;BME280;35385;55.668;37.508;2023-09-07T01:44:04;99787.13;;;10.07;100.00
36600;BME280;35385;55.668;37.508;2023-09-07T01:45:07;99834.25;;;10.42;100.00
36600;BME280;35385;55.668;37.508;2023-09-07T01:46:08;99832.31;;;10.44;100.00
36600;BME280;35385;55.668;37.508;2023-09-07T01:47:09;99838.50;;;10.44;100.00
36600;BME280;35385;55.668;37.508;2023-09-07T01:48:13;99840.31;;;10.44;100.00
36600;BME280;35385;55.668;37.508;2023-09-07T01:49:14;99838.63;;;10.43;100.00
36600;BME280;35385;55.668;37.508;2023-09-07T01:50:15;99780.94;;;10.07;100.00
36600;BME280;35385;55.668;37.508;2023-09-07T01:51:15;99829.16;;;10.27;100.00
36600;BME280;35385;55.668;37.508;2023-09-07T01:52:16;99832.78;;;10.26;100.00
36600;BME280;35385;55.668;37.508;2023-09-07T01:53:16;99835.94;;;10.32;100.00
36600;BME280;35385;55.668;37.508;2023-09-07T01:54:17;99835.84;;;10.33;100.00
36600;BME280;35385;55.668;37.508;2023-09-07T01:55:17;99840.09;;;10.36;100.00
36600;BME280;35385;55.668;37.508;2023-09-07T01:56:18;99787.38;;;10.04;100.00
36600;BME280;35385;55.668;37.508;2023-09-07T01:57:19;99835.44;;;10.26;100.00
36600;BME280;35385;55.668;37.508;2023-09-07T01:58:19;99845.53;;;10.23;100.00
36600;BME280;35385;55.668;37.508;2023-09-07T01:59:20;99832.00;;;10.13;100.00
36600;BME280;35385;55.668;37.508;2023-09-07T02:00:20;99842.88;;;10.23;100.00
36600;BME280;35385;55.668;37.508;2023-09-07T02:01:26;99843.22;;;10.18;100.00
36600;BME280;35385;55.668;37.508;2023-09-07T02:02:27;99846.88;;;10.28;100.00
36600;BME280;35385;55.668;37.508;2023-09-07T02:03:27;99842.50;;;10.27;100.00
36600;BME280;35385;55.668;37.508;2023-09-07T02:04:28;99797.19;;;10.04;100.00
36600;BME280;35385;55.668;37.508;2023-09-07T02:05:28;99831.34;;;10.22;100.00
36600;BME280;35385;55.668;37.508;2023-09-07T02:06:29;99839.72;;;10.29;100.00
36600;BME280;35385;55.668;37.508;2023-09-07T02:07:29;99849.06;;;10.35;100.00
36600;BME280;35385;55.668;37.508;2023-09-07T02:08:30;99845.66;;;10.33;100.00
36600;BME280;35385;55.668;37.508;2023-09-07T02:09:31;99844.81;;;10.32;100.00
36600;BME280;35385;55.668;37.508;2023-09-07T02:10:33;99841.53;;;10.28;100.00
36600;BME280;35385;55.668;37.508;2023-09-07T02:11:33;99849.53;;;10.28;100.00
36600;BME280;35385;55.668;37.508;2023-09-07T02:12:34;99853.91;;;10.30;100.00
36600;BME280;35385;55.668;37.508;2023-09-07T02:13:35;99860.72;;;10.34;100.00
36600;BME280;35385;55.668;37.508;2023-09-07T02:14:35;99848.44;;;10.31;100.00
36600;BME280;35385;55.668;37.508;2023-09-07T02:15:39;99814.56;;;10.09;100.00
36600;BME280;35385;55.668;37.508;2023-09-07T02:16:40;99817.72;;;10.25;100.00
36600;BME280;35385;55.668;37.508;2023-09-07T02:17:42;99856.84;;;10.49;100.00
36600;BME280;35385;55.668;37.508;2023-09-07T02:18:45;99862.41;;;10.57;100.00
36600;BME280;35385;55.668;37.508;2023-09-07T02:19:47;99843.72;;;10.46;100.00
36600;BME280;35385;55.668;37.508;2023-09-07T02:20:47;99796.22;;;10.16;100.00
36600;BME280;35385;55.668;37.508;2023-09-07T02:21:48;99860.97;;;10.53;100.00
36600;BME280;35385;55.668;37.508;2023-09-07T02:22:49;99856.59;;;10.52;100.00
36600;BME280;35385;55.668;37.508;2023-09-07T02:23:50;99854.03;;;10.61;100.00
36600;BME280;35385;55.668;37.508;2023-09-07T02:24:51;99828.56;;;10.46;100.00
36600;BME280;35385;55.668;37.508;2023-09-07T02:25:51;99849.44;;;10.63;100.00
36600;BME280;35385;55.668;37.508;2023-09-07T02:26:52;99860.72;;;10.67;100.00
36600;BME280;35385;55.668;37.508;2023-09-07T02:27:52;99850.75;;;10.58;100.00
36600;BME280;35385;55.668;37.508;2023-09-07T02:28:53;99869.72;;;10.66;100.00
36600;BME280;35385;55.668;37.508;2023-09-07T02:29:54;99860.56;;;10.69;100.00
36600;BME280;35385;55.668;37.508;2023-09-07T02:30:54;99838.59;;;10.54;100.00
36600;BME280;35385;55.668;37.508;2023-09-07T02:31:55;99814.81;;;10.40;100.00
36600;BME280;35385;55.668;37.508;2023-09-07T02:32:57;99846.63;;;10.65;100.00
36600;BME280;35385;55.668;37.508;2023-09-07T02:33:57;99870.06;;;10.73;100.00
36600;BME280;35385;55.668;37.508;2023-09-07T02:34:58;99859.72;;;10.68;100.00
36600;BME280;35385;55.668;37.508;2023-09-07T02:35:59;99804.88;;;10.31;100.00
36600;BME280;35385;55.668;37.508;2023-09-07T02:37:00;99856.72;;;10.61;100.00
36600;BME280;35385;55.668;37.508;2023-09-07T02:38:00;99868.88;;;10.66;100.00
36600;BME280;35385;55.668;37.508;2023-09-07T02:39:01;99854.50;;;10.55;100.00
36600;BME280;35385;55.668;37.508;2023-09-07T02:40:02;99867.75;;;10.57;100.00
36600;BME280;35385;55.668;37.508;2023-09-07T02:41:07;99824.53;;;10.30;100.00
36600;BME280;35385;55.668;37.508;2023-09-07T02:42:07;99848.34;;;10.44;100.00
36600;BME280;35385;55.668;37.508;2023-09-07T02:43:09;99875.88;;;10.55;100.00
36600;BME280;35385;55.668;37.508;2023-09-07T02:44:09;99816.72;;;10.15;100.00
36600;BME280;35385;55.668;37.508;2023-09-07T02:45:11;99873.22;;;10.55;100.00
36600;BME280;35385;55.668;37.508;2023-09-07T02:46:11;99874.56;;;10.61;100.00
36600;BME280;35385;55.668;37.508;2023-09-07T02:47:12;99864.47;;;10.53;100.00
36600;BME280;35385;55.668;37.508;2023-09-07T02:48:13;99874.56;;;10.72;100.00
36600;BME280;35385;55.668;37.508;2023-09-07T02:49:13;99844.34;;;10.49;100.00
36600;BME280;35385;55.668;37.508;2023-09-07T02:50:14;99873.81;;;10.59;100.00
36600;BME280;35385;55.668;37.508;2023-09-07T02:51:16;99881.50;;;10.63;100.00
36600;BME280;35385;55.668;37.508;2023-09-07T02:52:17;99813.09;;;10.16;100.00
36600;BME280;35385;55.668;37.508;2023-09-07T02:53:18;99881.34;;;10.54;100.00
36600;BME280;35385;55.668;37.508;2023-09-07T02:54:18;99878.19;;;10.60;100.00
36600;BME280;35385;55.668;37.508;2023-09-07T02:55:20;99877.22;;;10.61;100.00
36600;BME280;35385;55.668;37.508;2023-09-07T02:56:20;99882.47;;;10.51;100.00
36600;BME280;35385;55.668;37.508;2023-09-07T02:57:21;99882.69;;;10.48;100.00
36600;BME280;35385;55.668;37.508;2023-09-07T02:58:22;99885.25;;;10.50;100.00
36600;BME280;35385;55.668;37.508;2023-09-07T02:59:23;99840.44;;;10.20;100.00
36600;BME280;35385;55.668;37.508;2023-09-07T03:00:24;99841.28;;;10.20;100.00
36600;BME280;35385;55.668;37.508;2023-09-07T03:01:24;99900.88;;;10.43;100.00
36600;BME280;35385;55.668;37.508;2023-09-07T03:02:25;99869.56;;;10.34;100.00
36600;BME280;35385;55.668;37.508;2023-09-07T03:03:25;99890.22;;;10.43;100.00
36600;BME280;35385;55.668;37.508;2023-09-07T03:04:26;99889.00;;;10.36;100.00
36600;BME280;35385;55.668;37.508;2023-09-07T03:05:27;99879.41;;;10.34;100.00
36600;BME280;35385;55.668;37.508;2023-09-07T03:06:28;99900.03;;;10.43;100.00
36600;BME280;35385;55.668;37.508;2023-09-07T03:07:33;99895.81;;;10.51;100.00
36600;BME280;35385;55.668;37.508;2023-09-07T03:08:34;99880.38;;;10.44;100.00
36600;BME280;35385;55.668;37.508;2023-09-07T03:09:35;99848.06;;;10.24;100.00
36600;BME280;35385;55.668;37.508;2023-09-07T03:10:36;99885.25;;;10.50;100.00
36600;BME280;35385;55.668;37.508;2023-09-07T03:11:37;99889.25;;;10.55;100.00
36600;BME280;35385;55.668;37.508;2023-09-07T03:12:38;99892.91;;;10.66;100.00
36600;BME280;35385;55.668;37.508;2023-09-07T03:13:39;99885.47;;;10.58;100.00
36600;BME280;35385;55.668;37.508;2023-09-07T03:14:43;99905.41;;;10.65;100.00
36600;BME280;35385;55.668;37.508;2023-09-07T03:15:44;99894.72;;;10.65;100.00
36600;BME280;35385;55.668;37.508;2023-09-07T03:16:44;99892.91;;;10.66;100.00
36600;BME280;35385;55.668;37.508;2023-09-07T03:17:45;99896.91;;;10.60;100.00
36600;BME280;35385;55.668;37.508;2023-09-07T03:18:45;99887.41;;;10.56;100.00
36600;BME280;35385;55.668;37.508;2023-09-07T03:19:47;99907.81;;;10.68;100.00
36600;BME280;35385;55.668;37.508;2023-09-07T03:20:47;99908.53;;;10.70;100.00
36600;BME280;35385;55.668;37.508;2023-09-07T03:21:48;99894.72;;;10.76;100.00
36600;BME280;35385;55.668;37.508;2023-09-07T03:22:49;99902.72;;;10.76;100.00
36600;BME280;35385;55.668;37.508;2023-09-07T03:23:49;99907.34;;;10.74;100.00
36600;BME280;35385;55.668;37.508;2023-09-07T03:24:50;99903.81;;;10.74;100.00
36600;BME280;35385;55.668;37.508;2023-09-07T03:25:51;99905.75;;;10.72;100.00
36600;BME280;35385;55.668;37.508;2023-09-07T03:26:52;99907.34;;;10.74;100.00
36600;BME280;35385;55.668;37.508;2023-09-07T03:27:53;99891.09;;;10.66;100.00
36600;BME280;35385;55.668;37.508;2023-09-07T03:28:53;99903.22;;;10.70;100.00
36600;BME280;35385;55.668;37.508;2023-09-07T03:29:54;99910.50;;;10.68;100.00
36600;BME280;35385;55.668;37.508;2023-09-07T03:30:54;99901.63;;;10.56;100.00
36600;BME280;35385;55.668;37.508;2023-09-07T03:31:56;99906.00;;;10.57;100.00
36600;BME280;35385;55.668;37.508;2023-09-07T03:32:56;99910.03;;;10.63;100.00
36600;BME280;35385;55.668;37.508;2023-09-07T03:33:57;99918.03;;;10.63;100.00
36600;BME280;35385;55.668;37.508;2023-09-07T03:34:57;99919.63;;;10.66;100.00
36600;BME280;35385;55.668;37.508;2023-09-07T03:35:58;99909.75;;;10.55;100.00
36600;BME280;35385;55.668;37.508;2023-09-07T03:36:59;99919.13;;;10.49;100.00
36600;BME280;35385;55.668;37.508;2023-09-07T03:38:00;99912.81;;;10.50;100.00
36600;BME280;35385;55.668;37.508;2023-09-07T03:39:00;99903.09;;;10.49;100.00
36600;BME280;35385;55.668;37.508;2023-09-07T03:40:01;99857.66;;;10.27;100.00
36600;BME280;35385;55.668;37.508;2023-09-07T03:41:01;99917.06;;;10.53;100.00
36600;BME280;35385;55.668;37.508;2023-09-07T03:42:02;99892.03;;;10.32;100.00
36600;BME280;35385;55.668;37.508;2023-09-07T03:43:03;99921.78;;;10.49;100.00
36600;BME280;35385;55.668;37.508;2023-09-07T03:44:04;99908.28;;;10.40;100.00
36600;BME280;35385;55.668;37.508;2023-09-07T03:45:05;99918.16;;;10.50;100.00
36600;BME280;35385;55.668;37.508;2023-09-07T03:46:06;99915.47;;;10.50;100.00
36600;BME280;35385;55.668;37.508;2023-09-07T03:47:06;99913.66;;;10.51;100.00
36600;BME280;35385;55.668;37.508;2023-09-07T03:48:07;99923.00;;;10.56;100.00
36600;BME280;35385;55.668;37.508;2023-09-07T03:49:09;99919.22;;;10.48;100.00
36600;BME280;35385;55.668;37.508;2023-09-07T03:50:10;99931.00;;;10.45;100.00
36600;BME280;35385;55.668;37.508;2023-09-07T03:51:11;99924.19;;;10.41;100.00
36600;BME280;35385;55.668;37.508;2023-09-07T03:52:11;99923.59;;;10.38;100.00
36600;BME280;35385;55.668;37.508;2023-09-07T03:53:12;99926.97;;;10.40;100.00
36600;BME280;35385;55.668;37.508;2023-09-07T03:54:12;99936.22;;;10.36;100.00
36600;BME280;35385;55.668;37.508;2023-09-07T03:55:14;99932.91;;;10.32;100.00
36600;BME280;35385;55.668;37.508;2023-09-07T03:56:14;99930.38;;;10.31;100.00
36600;BME280;35385;55.668;37.508;2023-09-07T03:57:15;99918.34;;;10.25;100.00
36600;BME280;35385;55.668;37.508;2023-09-07T03:58:15;99933.78;;;10.33;100.00
36600;BME280;35385;55.668;37.508;2023-09-07T03:59:16;99930.88;;;10.36;100.00
36600;BME280;35385;55.668;37.508;2023-09-07T04:00:17;99878.97;;;10.05;100.00
36600;BME280;35385;55.668;37.508;2023-09-07T04:01:19;99943.63;;;10.43;100.00
36600;BME280;35385;55.668;37.508;2023-09-07T04:02:19;99937.44;;;10.54;100.00
36600;BME280;35385;55.668;37.508;2023-09-07T04:03:20;99943.28;;;10.59;100.00
36600;BME280;35385;55.668;37.508;2023-09-07T04:04:21;99940.97;;;10.54;100.00
36600;BME280;35385;55.668;37.508;2023-09-07T04:05:21;99940.25;;;10.63;100.00
36600;BME280;35385;55.668;37.508;2023-09-07T04:06:22;99942.06;;;10.52;100.00
36600;BME280;35385;55.668;37.508;2023-09-07T04:07:24;99952.03;;;10.61;100.00
36600;BME280;35385;55.668;37.508;2023-09-07T04:08:24;99952.25;;;10.58;100.00
36600;BME280;35385;55.668;37.508;2023-09-07T04:09:25;99946.44;;;10.64;100.00
36600;BME280;35385;55.668;37.508;2023-09-07T04:10:26;99946.91;;;10.69;100.00
36600;BME280;35385;55.668;37.508;2023-09-07T04:11:26;99947.03;;;10.68;100.00
36600;BME280;35385;55.668;37.508;2023-09-07T04:12:27;99948.75;;;10.69;100.00
36600;BME280;35385;55.668;37.508;2023-09-07T04:13:28;99900.66;;;10.46;100.00
36600;BME280;35385;55.668;37.508;2023-09-07T04:14:29;99944.38;;;10.68;100.00
36600;BME280;35385;55.668;37.508;2023-09-07T04:15:30;99952.75;;;10.74;100.00
36600;BME280;35385;55.668;37.508;2023-09-07T04:16:31;99935.53;;;10.67;100.00
36600;BME280;35385;55.668;37.508;2023-09-07T04:17:32;99908.19;;;10.52;100.00
36600;BME280;35385;55.668;37.508;2023-09-07T04:18:40;99954.97;;;10.80;100.00
36600;BME280;35385;55.668;37.508;2023-09-07T04:19:40;99941.34;;;10.83;100.00
36600;BME280;35385;55.668;37.508;2023-09-07T04:20:41;99938.44;;;10.75;100.00
36600;BME280;35385;55.668;37.508;2023-09-07T04:21:42;99934.78;;;10.65;100.00
36600;BME280;35385;55.668;37.508;2023-09-07T04:22:42;99945.72;;;10.73;100.00
36600;BME280;35385;55.668;37.508;2023-09-07T04:23:43;99959.94;;;10.85;100.00
36600;BME280;35385;55.668;37.508;2023-09-07T04:24:47;99945.25;;;10.79;100.00
36600;BME280;35385;55.668;37.508;2023-09-07T04:25:48;99959.56;;;11.01;100.00
36600;BME280;35385;55.668;37.508;2023-09-07T04:26:48;99966.38;;;11.16;100.00
36600;BME280;35385;55.668;37.508;2023-09-07T04:27:50;99968.19;;;11.15;100.00
36600;BME280;35385;55.668;37.508;2023-09-07T04:28:50;99960.19;;;11.04;100.00
36600;BME280;35385;55.668;37.508;2023-09-07T04:29:51;99958.69;;;11.11;100.00
36600;BME280;35385;55.668;37.508;2023-09-07T04:30:51;99919.25;;;10.81;100.00
36600;BME280;35385;55.668;37.508;2023-09-07T04:31:52;99961.50;;;10.98;100.00
36600;BME280;35385;55.668;37.508;2023-09-07T04:32:53;99961.25;;;11.02;100.00
36600;BME280;35385;55.668;37.508;2023-09-07T04:33:53;99970.50;;;11.09;100.00
36600;BME280;35385;55.668;37.508;2023-09-07T04:34:57;99975.13;;;11.18;100.00
36600;BME280;35385;55.668;37.508;2023-09-07T04:36:12;99967.81;;;11.31;100.00
36600;BME280;35385;55.668;37.508;2023-09-07T04:37:13;99968.56;;;11.22;100.00
36600;BME280;35385;55.668;37.508;2023-09-07T04:38:13;99976.31;;;11.14;100.00
36600;BME280;35385;55.668;37.508;2023-09-07T04:39:14;99927.25;;;10.92;100.00
36600;BME280;35385;55.668;37.508;2023-09-07T04:40:15;99985.78;;;11.29;100.00
36600;BME280;35385;55.668;37.508;2023-09-07T04:41:15;99981.16;;;11.42;100.00
36600;BME280;35385;55.668;37.508;2023-09-07T04:42:16;99970.00;;;11.26;100.00
36600;BME280;35385;55.668;37.508;2023-09-07T04:43:17;99977.78;;;11.18;100.00
36600;BME280;35385;55.668;37.508;2023-09-07T04:44:17;99940.75;;;10.91;100.00
36600;BME280;35385;55.668;37.508;2023-09-07T04:45:18;99932.22;;;10.86;100.00
36600;BME280;35385;55.668;37.508;2023-09-07T04:46:21;99974.50;;;11.03;100.00
36600;BME280;35385;55.668;37.508;2023-09-07T04:47:23;99967.22;;;11.05;100.00
36600;BME280;35385;55.668;37.508;2023-09-07T04:48:23;99977.03;;;11.27;100.00
36600;BME280;35385;55.668;37.508;2023-09-07T04:49:24;99970.63;;;11.18;100.00
36600;BME280;35385;55.668;37.508;2023-09-07T04:50:26;99970.50;;;11.20;100.00
36600;BME280;35385;55.668;37.508;2023-09-07T04:51:27;99830.97;;;10.27;100.00
36600;BME280;35385;55.668;37.508;2023-09-07T04:52:27;99980.47;;;11.18;100.00
36600;BME280;35385;55.668;37.508;2023-09-07T04:53:29;99989.09;;;11.10;100.00
36600;BME280;35385;55.668;37.508;2023-09-07T04:54:30;99960.78;;;11.08;100.00
36600;BME280;35385;55.668;37.508;2023-09-07T04:55:30;99981.94;;;11.22;100.00
36600;BME280;35385;55.668;37.508;2023-09-07T04:56:31;99983.13;;;11.29;100.00
36600;BME280;35385;55.668;37.508;2023-09-07T04:57:31;99973.75;;;11.34;100.00
36600;BME280;35385;55.668;37.508;2023-09-07T04:58:32;99988.44;;;11.40;100.00
36600;BME280;35385;55.668;37.508;2023-09-07T04:59:33;99983.00;;;11.30;100.00
36600;BME280;35385;55.668;37.508;2023-09-07T05:00:33;99975.09;;;11.29;100.00
36600;BME280;35385;55.668;37.508;2023-09-07T05:01:34;99967.31;;;11.37;100.00
36600;BME280;35385;55.668;37.508;2023-09-07T05:02:34;99959.19;;;11.39;100.00
36600;BME280;35385;55.668;37.508;2023-09-07T05:03:40;99932.31;;;11.29;100.00
36600;BME280;35385;55.668;37.508;2023-09-07T05:04:41;99979.19;;;11.55;100.00
36600;BME280;35385;55.668;37.508;2023-09-07T05:05:41;99980.50;;;11.61;100.00
36600;BME280;35385;55.668;37.508;2023-09-07T05:06:42;99985.81;;;11.72;100.00
36600;BME280;35385;55.668;37.508;2023-09-07T05:07:43;99948.28;;;11.62;100.00
36600;BME280;35385;55.668;37.508;2023-09-07T05:08:44;99976.81;;;11.84;100.00
36600;BME280;35385;55.668;37.508;2023-09-07T05:09:44;99987.38;;;11.97;100.00
36600;BME280;35385;55.668;37.508;2023-09-07T05:10:45;99992.69;;;12.08;100.00
36600;BME280;35385;55.668;37.508;2023-09-07T05:11:46;99985.50;;;12.09;100.00
36600;BME280;35385;55.668;37.508;2023-09-07T05:12:46;99990.50;;;12.02;100.00
36600;BME280;35385;55.668;37.508;2023-09-07T05:13:47;99988.38;;;11.85;100.00
36600;BME280;35385;55.668;37.508;2023-09-07T05:14:47;99995.81;;;11.70;100.00
36600;BME280;35385;55.668;37.508;2023-09-07T05:15:52;99993.41;;;11.56;100.00
36600;BME280;35385;55.668;37.508;2023-09-07T05:16:52;99996.06;;;11.56;100.00